Time;durP1;ratioP1;P1;durP2;ratioP2;P2;SDS_P1;SDS_P2;PMS_P1;PMS_P2;Temp;Humidity;BMP_temperature;BMP_pressure;BME280_temperature;BME280_humidity;BME280_pressure;Samples;Min_cycle;Max_cycle;Signal;HPM_P1;HPM_P2
2023/07/17 00:00:31;;;;;;;9.65;3.60;;;;;;;17.08;100.00;93330.00;2097049;28;20032;-80
2023/07/17 00:01:32;;;;;;;5.45;3.50;;;;;;;16.98;100.00;93333.91;2097377;28;20039;-81
2023/07/17 00:02:35;;;;;;;6.53;3.50;;;;;;;16.95;100.00;93329.44;2088529;28;20040;-81
2023/07/17 00:03:36;;;;;;;5.82;3.15;;;;;;;16.97;100.00;93337.81;2089629;28;20111;-80
2023/07/17 00:04:37;;;;;;;10.25;3.60;;;;;;;16.89;100.00;93330.47;2105622;28;20062;-80
2023/07/17 00:05:40;;;;;;;7.38;3.45;;;;;;;16.88;100.00;93329.72;2110637;28;20368;-80
2023/07/17 00:06:41;;;;;;;7.93;3.00;;;;;;;16.89;100.00;93325.81;2097321;28;20332;-80
2023/07/17 00:07:43;;;;;;;6.90;3.63;;;;;;;16.82;100.00;93331.53;2099225;28;20039;-80
2023/07/17 00:08:44;;;;;;;10.20;3.67;;;;;;;16.80;100.00;93331.97;2096234;28;20036;-82
2023/07/17 00:09:45;;;;;;;4.97;3.58;;;;;;;16.80;100.00;93339.31;2105309;28;20036;-81
2023/07/17 00:10:46;;;;;;;5.97;3.45;;;;;;;16.83;100.00;93341.13;2105087;28;20019;-80
2023/07/17 00:11:46;;;;;;;7.70;3.53;;;;;;;16.81;100.00;93341.59;2105856;28;20080;-80
2023/07/17 00:12:47;;;;;;;9.75;3.47;;;;;;;16.77;100.00;93338.28;2105000;28;20031;-80
2023/07/17 00:13:48;;;;;;;6.82;3.40;;;;;;;16.84;100.00;93337.22;2103707;28;20063;-79
2023/07/17 00:14:49;;;;;;;7.32;3.47;;;;;;;16.85;100.00;93338.72;2101606;28;20028;-80
2023/07/17 00:15:50;;;;;;;8.27;3.40;;;;;;;16.87;100.00;93330.94;2101581;28;20331;-81
2023/07/17 00:16:52;;;;;;;6.82;3.55;;;;;;;16.84;100.00;93323.72;2097223;28;20119;-81
2023/07/17 00:17:55;;;;;;;6.38;3.70;;;;;;;16.90;100.00;93321.16;2106137;28;20478;-79
2023/07/17 00:18:56;;;;;;;8.75;3.65;;;;;;;16.88;100.00;93326.28;2112588;28;20543;-82
2023/07/17 00:19:57;;;;;;;8.45;3.35;;;;;;;16.88;100.00;93327.03;2113814;28;20023;-80
2023/07/17 00:20:58;;;;;;;6.57;3.33;;;;;;;16.81;100.00;93338.88;2113624;28;20020;-81
2023/07/17 00:22:00;;;;;;;9.30;3.75;;;;;;;16.81;100.00;93333.47;2097217;28;20025;-80
2023/07/17 00:23:01;;;;;;;7.07;3.30;;;;;;;16.82;100.00;93326.13;2097235;28;20407;-80
2023/07/17 00:24:03;;;;;;;6.03;3.45;;;;;;;16.73;100.00;93324.19;2103847;28;20025;-81
2023/07/17 00:25:04;;;;;;;9.77;4.03;;;;;;;16.76;100.00;93320.56;2097205;28;20483;-80
2023/07/17 00:26:05;;;;;;;7.07;3.78;;;;;;;16.73;100.00;93318.78;2093039;28;20481;-79
2023/07/17 01:09:21;;;;;;;9.57;3.90;;;;;;;16.29;100.00;93318.25;2096995;28;20128;-81
2023/07/17 01:10:23;;;;;;;9.43;4.05;;;;;;;16.25;100.00;93317.66;2105599;28;20040;-80
2023/07/17 01:11:24;;;;;;;11.25;4.10;;;;;;;16.22;100.00;93307.75;2105841;28;20036;-80
2023/07/17 01:12:33;;;;;;;12.13;4.18;;;;;;;16.24;100.00;93310.72;2102420;28;20020;-81
2023/07/17 01:13:49;;;;;;;7.43;3.97;;;;;;;16.24;100.00;93324.22;2098066;28;20038;-81
2023/07/17 01:14:56;;;;;;;11.70;4.20;;;;;;;16.21;100.00;93325.13;2095350;28;20024;-81
2023/07/17 01:16:05;;;;;;;8.27;3.83;;;;;;;16.18;100.00;93326.75;2090183;28;20032;-81
2023/07/17 01:17:11;;;;;;;13.20;4.55;;;;;;;16.16;100.00;93331.13;2089184;28;20078;-80
2023/07/17 01:18:18;;;;;;;9.70;4.57;;;;;;;16.10;100.00;93331.69;2096368;28;20445;-81
2023/07/17 01:19:25;;;;;;;10.85;3.90;;;;;;;16.10;100.00;93328.22;2087113;28;20497;-80
2023/07/17 01:20:31;;;;;;;12.15;4.00;;;;;;;16.09;100.00;93329.44;2086222;28;20041;-80
2023/07/17 01:21:46;;;;;;;12.32;4.30;;;;;;;16.11;100.00;93324.34;2090013;28;20029;-80
2023/07/17 01:23:02;;;;;;;8.48;4.10;;;;;;;16.10;100.00;93322.84;2097190;28;20036;-81
2023/07/17 01:24:09;;;;;;;10.88;4.40;;;;;;;16.07;100.00;93321.81;2092454;28;20475;-82
2023/07/17 01:25:13;;;;;;;7.47;3.58;;;;;;;16.09;100.00;93322.09;2105496;28;20053;-79
2023/07/17 01:26:20;;;;;;;9.68;4.28;;;;;;;16.07;100.00;93315.66;2096886;28;20026;-81
2023/07/17 01:27:27;;;;;;;9.63;4.07;;;;;;;16.05;100.00;93329.56;2095499;28;20025;-81
2023/07/17 01:28:33;;;;;;;9.35;3.95;;;;;;;16.22;100.00;93330.06;2088300;28;20554;-81
2023/07/17 01:29:38;;;;;;;7.35;4.03;;;;;;;16.33;100.00;93326.94;2097171;28;20051;-81
2023/07/17 01:30:46;;;;;;;9.80;4.30;;;;;;;16.29;100.00;93335.19;2105481;28;20074;-80
2023/07/17 01:31:53;;;;;;;7.40;4.13;;;;;;;16.17;100.00;93336.06;2094305;28;20051;-80
2023/07/17 01:33:00;;;;;;;6.13;4.00;;;;;;;16.13;100.00;93340.84;2098681;28;20531;-81
2023/07/17 01:34:05;;;;;;;8.65;4.50;;;;;;;16.11;100.00;93329.72;2094365;28;20081;-81
2023/07/17 01:35:12;;;;;;;7.70;3.92;;;;;;;16.08;100.00;93338.72;2090019;28;20041;-80
2023/07/17 01:36:21;;;;;;;12.45;4.35;;;;;;;16.15;100.00;93329.59;2105802;28;20103;-80
2023/07/17 01:37:28;;;;;;;8.45;3.60;;;;;;;16.16;100.00;93328.41;2103075;28;20028;-82
2023/07/17 01:38:35;;;;;;;8.02;4.10;;;;;;;16.38;100.00;93341.81;2099785;28;20385;-81
2023/07/17 01:39:44;;;;;;;7.72;3.78;;;;;;;16.51;100.00;93329.69;2114009;28;20039;-80
2023/07/17 01:40:46;;;;;;;10.25;4.40;;;;;;;16.45;100.00;93328.00;2114028;28;20463;-81
2023/07/17 01:41:54;;;;;;;10.63;4.22;;;;;;;16.41;100.00;93340.88;2097437;28;20087;-81
2023/07/17 01:43:03;;;;;;;11.20;4.13;;;;;;;16.34;100.00;93341.94;2099346;28;20048;-80
2023/07/17 01:44:10;;;;;;;11.48;4.10;;;;;;;16.36;100.00;93337.59;2101712;28;20039;-80
2023/07/17 01:45:17;;;;;;;8.40;3.97;;;;;;;16.25;100.00;93342.66;2090140;28;20024;-83
2023/07/17 01:46:23;;;;;;;9.75;3.95;;;;;;;16.19;100.00;93341.00;2090201;28;20021;-80
2023/07/17 01:47:33;;;;;;;12.20;4.50;;;;;;;16.20;100.00;93339.78;2098743;28;20025;-81
2023/07/17 01:48:41;;;;;;;13.57;4.50;;;;;;;16.17;100.00;93343.41;2092191;28;20025;-81
2023/07/17 01:49:50;;;;;;;11.63;4.35;;;;;;;16.20;100.00;93339.78;2098101;28;20039;-80
2023/07/17 01:50:59;;;;;;;11.37;4.90;;;;;;;16.23;100.00;93333.50;2087921;28;20021;-80
2023/07/17 01:52:08;;;;;;;7.10;4.28;;;;;;;16.16;100.00;93341.91;2098303;28;20474;-81
2023/07/17 01:53:11;;;;;;;11.32;4.80;;;;;;;16.15;100.00;93340.38;2097485;28;20028;-80
2023/07/17 01:54:16;;;;;;;7.75;4.00;;;;;;;16.26;100.00;93343.41;2100579;28;20063;-81
2023/07/17 01:55:26;;;;;;;12.07;4.47;;;;;;;16.43;100.00;93341.22;2089581;28;20111;-81
2023/07/17 01:56:33;;;;;;;9.57;4.05;;;;;;;16.31;100.00;93337.44;2092056;28;20032;-80
2023/07/17 01:57:40;;;;;;;9.32;4.93;;;;;;;16.22;100.00;93340.13;2096934;28;20086;-81
2023/07/17 01:58:48;;;;;;;7.40;3.97;;;;;;;16.17;100.00;93346.84;2089622;28;20031;-81
2023/07/17 01:59:51;;;;;;;10.82;4.40;;;;;;;16.20;100.00;93337.88;2094753;28;20062;-81
2023/07/17 02:00:58;;;;;;;15.38;5.13;;;;;;;16.18;100.00;93339.50;2096659;28;20039;-80
2023/07/17 02:02:05;;;;;;;9.30;3.92;;;;;;;16.29;100.00;93337.88;2102306;28;20123;-81
2023/07/17 02:03:13;;;;;;;8.32;4.22;;;;;;;16.26;100.00;93343.41;2100001;28;20558;-80
2023/07/17 02:04:20;;;;;;;11.82;3.85;;;;;;;16.28;100.00;93341.00;2105200;28;20529;-82
2023/07/17 02:05:25;;;;;;;8.65;4.20;;;;;;;16.22;100.00;93335.47;2105835;28;20028;-81
2023/07/17 02:06:32;;;;;;;8.23;4.63;;;;;;;16.23;100.00;93336.22;2111290;28;20043;-81
2023/07/17 02:07:38;;;;;;;8.20;4.22;;;;;;;16.15;100.00;93335.72;2111269;28;20080;-80
2023/07/17 02:08:44;;;;;;;15.27;4.63;;;;;;;16.09;100.00;93334.84;2105473;28;20067;-80
2023/07/17 02:09:49;;;;;;;9.48;4.85;;;;;;;16.15;100.00;93345.78;2104732;28;20383;-80
2023/07/17 02:10:56;;;;;;;15.57;4.80;;;;;;;16.10;100.00;93342.47;2094128;28;20094;-81
2023/07/17 02:12:05;;;;;;;9.10;4.30;;;;;;;16.17;100.00;93338.75;2106437;28;20027;-80
2023/07/17 02:13:12;;;;;;;11.07;4.32;;;;;;;16.23;100.00;93347.00;2103425;28;20027;-82
2023/07/17 02:14:18;;;;;;;8.82;4.57;;;;;;;16.21;100.00;93342.06;2097992;28;20016;-81
2023/07/17 02:15:22;;;;;;;12.48;4.32;;;;;;;16.18;100.00;93342.94;2093328;28;20547;-81
2023/07/17 02:16:26;;;;;;;13.55;4.35;;;;;;;16.21;100.00;93335.91;2101755;28;20117;-81
2023/07/17 02:17:33;;;;;;;8.80;4.30;;;;;;;16.23;100.00;93333.50;2105264;28;20107;-80
2023/07/17 02:18:37;;;;;;;11.23;4.40;;;;;;;16.17;100.00;93338.75;2098046;28;20088;-80
2023/07/17 02:19:41;;;;;;;10.43;4.45;;;;;;;16.15;100.00;93343.81;2098988;28;20067;-79
2023/07/17 02:38:21;;;;;;;12.70;4.97;;;;;;;15.91;100.00;93354.41;2585686;22;20024;-81
2023/07/17 02:39:22;;;;;;;17.95;5.10;;;;;;;15.88;100.00;93357.22;2571909;23;20042;-81
2023/07/17 02:40:23;;;;;;;12.45;5.47;;;;;;;15.81;100.00;93364.41;2559196;23;20001;-80
2023/07/17 02:41:24;;;;;;;15.75;5.80;;;;;;;15.81;100.00;93364.41;2547394;23;20020;-81
2023/07/17 02:42:28;;;;;;;11.90;5.07;;;;;;;15.80;100.00;93364.81;2547344;23;20012;-80
2023/07/17 02:43:29;;;;;;;11.18;4.50;;;;;;;15.70;100.00;93368.69;2550218;23;20426;-81
2023/07/17 02:44:30;;;;;;;12.18;4.90;;;;;;;15.67;100.00;93364.94;2560703;23;20013;-80
2023/07/17 02:45:32;;;;;;;12.00;5.32;;;;;;;15.62;100.00;93368.16;2560050;23;20069;-80
2023/07/17 02:46:32;;;;;;;12.95;4.70;;;;;;;15.62;100.00;93368.16;2559192;23;20092;-81
2023/07/17 02:47:33;;;;;;;9.95;4.85;;;;;;;15.58;100.00;93368.31;2547150;23;20052;-80
2023/07/17 02:48:34;;;;;;;11.18;4.95;;;;;;;15.48;100.00;93382.16;2547251;23;20009;-80
2023/07/17 02:49:40;;;;;;;11.50;4.90;;;;;;;15.47;100.00;93383.34;2547133;23;20016;-81
2023/07/17 02:50:41;;;;;;;11.73;5.20;;;;;;;15.38;100.00;93375.97;2536437;23;20020;-81
2023/07/17 02:51:42;;;;;;;20.42;4.85;;;;;;;15.36;100.00;93381.03;2534852;23;20328;-81
2023/07/17 02:52:43;;;;;;;8.80;4.63;;;;;;;15.34;100.00;93378.78;2547109;23;20017;-81
2023/07/17 02:53:44;;;;;;;8.48;4.63;;;;;;;15.32;100.00;93373.09;2547178;23;20048;-80
2023/07/17 02:54:45;;;;;;;12.60;5.10;;;;;;;15.42;100.00;93381.22;2546687;23;20420;-81
2023/07/17 02:55:46;;;;;;;12.68;4.30;;;;;;;15.50;100.00;93385.91;2546953;23;20032;-81
2023/07/17 02:56:47;;;;;;;10.50;4.20;;;;;;;15.40;100.00;93386.28;2546885;23;20012;-81
2023/07/17 02:57:48;;;;;;;13.52;4.85;;;;;;;15.30;100.00;93380.84;2543625;23;20028;-80
2023/07/17 02:58:53;;;;;;;16.48;5.32;;;;;;;15.22;100.00;93384.22;2549861;23;20005;-80
2023/07/17 02:59:54;;;;;;;9.32;4.22;;;;;;;15.17;100.00;93380.16;2548462;23;20084;-80
2023/07/17 03:00:55;;;;;;;11.15;4.68;;;;;;;15.31;100.00;93387.72;2534975;23;20300;-80
2023/07/17 03:01:56;;;;;;;12.80;4.80;;;;;;;15.19;100.00;93379.72;2548888;23;20125;-79
2023/07/17 03:02:57;;;;;;;8.38;4.35;;;;;;;15.03;100.00;93396.81;2561409;23;20079;-82
2023/07/17 03:03:58;;;;;;;10.10;5.22;;;;;;;15.05;100.00;93386.34;2571973;23;20000;-80
2023/07/17 03:04:59;;;;;;;9.63;4.32;;;;;;;15.00;100.00;93387.66;2563646;23;20268;-80
2023/07/17 03:06:00;;;;;;;9.40;4.35;;;;;;;15.00;100.00;93392.28;2571784;23;20027;-81
2023/07/17 03:07:02;;;;;;;7.05;4.25;;;;;;;14.90;100.00;93399.53;2559187;23;20044;-81
2023/07/17 03:08:04;;;;;;;10.25;4.20;;;;;;;14.81;100.00;93380.63;2559738;23;20343;-80
2023/07/17 03:09:05;;;;;;;9.07;4.93;;;;;;;14.75;100.00;93390.44;2559504;23;20416;-80
2023/07/17 03:10:07;;;;;;;11.10;4.68;;;;;;;14.69;100.00;93381.41;2547186;23;20043;-81
2023/07/17 03:11:08;;;;;;;9.60;4.57;;;;;;;14.66;100.00;93382.28;2559932;23;20395;-80
2023/07/17 03:12:09;;;;;;;11.52;4.50;;;;;;;14.63;100.00;93386.59;2547041;23;20012;-80
2023/07/17 03:13:12;;;;;;;13.43;4.25;;;;;;;14.57;100.00;93385.63;2561245;23;20142;-80
2023/07/17 03:14:14;;;;;;;14.30;5.40;;;;;;;14.56;100.00;93386.81;2547056;23;20044;-80
2023/07/17 03:15:15;;;;;;;8.55;4.35;;;;;;;14.56;100.00;93392.22;2559323;23;20028;-80
2023/07/17 03:16:16;;;;;;;13.80;4.85;;;;;;;14.51;100.00;93390.06;2571505;23;20083;-80
2023/07/17 03:17:17;;;;;;;9.98;4.32;;;;;;;14.42;100.00;93398.78;2559403;23;20011;-80
2023/07/17 03:18:18;;;;;;;12.38;5.00;;;;;;;14.38;100.00;93389.31;2547149;23;20439;-80
2023/07/17 03:19:19;;;;;;;13.25;5.25;;;;;;;14.31;100.00;93392.97;2547144;23;20029;-81
2023/07/17 03:20:22;;;;;;;10.38;4.72;;;;;;;14.27;100.00;93390.41;2559124;23;20035;-80
2023/07/17 03:21:23;;;;;;;9.57;4.85;;;;;;;14.25;100.00;93389.31;2559077;23;20012;-81
2023/07/17 03:22:26;;;;;;;9.25;4.40;;;;;;;14.26;100.00;93388.13;2559676;23;20000;-80
2023/07/17 03:23:28;;;;;;;10.30;4.68;;;;;;;14.15;100.00;93395.81;2558889;23;20030;-81
2023/07/17 03:24:29;;;;;;;12.85;4.50;;;;;;;14.21;100.00;93402.88;2546804;23;20033;-80
2023/07/17 03:25:30;;;;;;;11.75;4.57;;;;;;;14.21;100.00;93400.19;2559139;23;20571;-80
2023/07/17 03:26:31;;;;;;;10.10;4.45;;;;;;;14.23;100.00;93403.22;2534461;23;20005;-80
2023/07/17 03:27:32;;;;;;;12.45;4.88;;;;;;;14.21;100.00;93402.13;2559363;23;20004;-80
2023/07/17 03:28:34;;;;;;;11.10;4.80;;;;;;;14.11;100.00;93401.28;2559415;23;20005;-80
2023/07/17 03:29:36;;;;;;;13.52;5.03;;;;;;;14.10;100.00;93403.22;2546922;23;20009;-81
2023/07/17 03:30:38;;;;;;;8.00;4.50;;;;;;;13.93;100.00;93399.13;2534739;23;20177;-81
2023/07/17 03:31:39;;;;;;;10.32;4.93;;;;;;;13.95;100.00;93398.69;2559719;23;20001;-81
2023/07/17 03:32:40;;;;;;;12.32;4.70;;;;;;;13.84;100.00;93402.47;2571193;23;20008;-81
2023/07/17 03:33:41;;;;;;;10.07;4.88;;;;;;;13.90;100.00;93393.84;2555850;23;20084;-82
2023/07/17 03:34:42;;;;;;;10.05;4.55;;;;;;;13.98;100.00;93397.84;2556185;23;20001;-81
2023/07/17 03:35:43;;;;;;;11.05;4.65;;;;;;;13.93;100.00;93393.75;2556433;23;20004;-80
2023/07/17 03:36:44;;;;;;;14.52;5.43;;;;;;;13.89;100.00;93392.34;2544022;23;20001;-81
2023/07/17 03:37:48;;;;;;;10.38;5.10;;;;;;;13.88;100.00;93396.97;2556461;23;20009;-80
2023/07/17 03:38:55;;;;;;;11.82;4.90;;;;;;;13.79;100.00;93399.56;2568753;23;20418;-81
2023/07/17 03:39:59;;;;;;;11.10;4.82;;;;;;;13.78;100.00;93398.81;2558511;23;20530;-80
2023/07/17 03:41:07;;;;;;;12.68;4.75;;;;;;;13.91;100.00;93411.47;2557295;23;20032;-82
2023/07/17 03:42:15;;;;;;;8.70;4.15;;;;;;;13.84;100.00;93407.09;2557026;23;20319;-80
2023/07/17 03:43:24;;;;;;;8.10;4.60;;;;;;;13.78;100.00;93403.41;2548004;23;20020;-81
2023/07/17 03:44:28;;;;;;;9.88;4.80;;;;;;;13.70;100.00;93413.63;2558381;23;20004;-80
2023/07/17 03:45:37;;;;;;;9.32;4.63;;;;;;;13.68;100.00;93412.53;2545303;23;20200;-80
2023/07/17 03:46:44;;;;;;;13.52;4.50;;;;;;;13.64;100.00;93414.56;2535297;23;20433;-80
2023/07/17 03:47:57;;;;;;;11.07;4.75;;;;;;;13.60;100.00;93415.41;2546897;23;20010;-82
2023/07/17 03:49:03;;;;;;;12.82;4.32;;;;;;;13.67;100.00;93414.47;2546890;23;20009;-82
2023/07/17 03:50:11;;;;;;;12.32;4.78;;;;;;;13.69;100.00;93414.03;2533871;23;20564;-79
2023/07/17 03:51:18;;;;;;;15.52;4.85;;;;;;;13.71;100.00;93423.19;2541214;23;20002;-79
2023/07/17 03:52:24;;;;;;;10.70;4.43;;;;;;;13.74;100.00;93418.88;2543702;23;20082;-81
2023/07/17 03:53:29;;;;;;;11.32;4.65;;;;;;;13.88;100.00;93417.72;2555484;23;19997;-80
2023/07/17 03:54:32;;;;;;;12.48;4.57;;;;;;;13.79;100.00;93424.50;2554233;23;20081;-80
2023/07/17 03:55:39;;;;;;;12.07;4.45;;;;;;;13.85;100.00;93427.41;2542517;23;20044;-79
2023/07/17 03:56:42;;;;;;;13.88;4.50;;;;;;;13.77;100.00;93423.41;2544228;23;20006;-79
2023/07/17 03:57:48;;;;;;;12.32;4.40;;;;;;;13.84;100.00;93426.66;2534602;23;20033;-79
2023/07/17 03:58:54;;;;;;;9.10;4.05;;;;;;;13.87;100.00;93419.66;2535473;23;20041;-80
2023/07/17 04:00:02;;;;;;;16.00;4.75;;;;;;;13.99;100.00;93418.16;2547061;23;20040;-80
2023/07/17 04:01:11;;;;;;;11.15;4.65;;;;;;;13.97;100.00;93429.34;2536040;23;20021;-80
2023/07/17 04:02:15;;;;;;;7.25;4.18;;;;;;;13.92;100.00;93429.88;2548380;23;20033;-83
2023/07/17 04:03:22;;;;;;;11.88;4.95;;;;;;;13.85;100.00;93424.72;2545436;23;20053;-79
2023/07/17 04:04:29;;;;;;;10.43;4.07;;;;;;;13.83;100.00;93416.34;2558102;23;20020;-80
2023/07/17 04:05:36;;;;;;;12.63;4.70;;;;;;;13.80;100.00;93423.31;2557777;23;20028;-82
2023/07/17 04:06:43;;;;;;;14.80;4.88;;;;;;;13.95;100.00;93422.88;2545039;23;20036;-80
2023/07/17 04:07:50;;;;;;;10.75;4.45;;;;;;;13.98;100.00;93420.09;2534561;23;20098;-81
2023/07/17 04:08:58;;;;;;;8.15;4.47;;;;;;;13.93;100.00;93415.25;2545546;23;20001;-80
2023/07/17 04:10:04;;;;;;;12.05;5.07;;;;;;;14.03;100.00;93413.44;2546073;23;20005;-83
2023/07/17 04:11:09;;;;;;;13.63;4.70;;;;;;;14.07;100.00;93411.38;2546476;23;20020;-81
2023/07/17 04:12:13;;;;;;;12.85;4.78;;;;;;;14.18;100.00;93421.81;2544934;23;20618;-81
2023/07/17 04:13:20;;;;;;;11.13;4.68;;;;;;;14.38;100.00;93419.66;2533689;23;20094;-80
2023/07/17 04:14:28;;;;;;;12.25;4.50;;;;;;;14.36;100.00;93425.47;2545008;23;20129;-80
2023/07/17 04:15:33;;;;;;;13.55;4.90;;;;;;;14.38;100.00;93433.09;2534754;23;20602;-82
2023/07/17 04:16:37;;;;;;;10.52;4.53;;;;;;;14.42;100.00;93433.00;2557079;23;20085;-81
2023/07/17 04:17:41;;;;;;;13.50;4.75;;;;;;;14.32;100.00;93435.59;2569026;23;20012;-81
2023/07/17 04:18:46;;;;;;;14.43;4.78;;;;;;;14.30;100.00;93431.81;2544540;23;20013;-82
2023/07/17 04:19:53;;;;;;;14.15;5.00;;;;;;;14.29;100.00;93425.69;2546191;23;20097;-80
2023/07/17 04:21:02;;;;;;;12.57;4.80;;;;;;;14.21;100.00;93429.75;2569726;23;20457;-81
2023/07/17 04:22:07;;;;;;;7.72;4.53;;;;;;;14.18;100.00;93430.66;2568129;23;20004;-80
2023/07/17 04:23:15;;;;;;;18.00;4.85;;;;;;;14.19;100.00;93426.03;2570045;23;20024;-80
2023/07/17 04:24:24;;;;;;;11.05;4.95;;;;;;;14.15;100.00;93433.44;2568569;23;20382;-81
2023/07/17 04:25:30;;;;;;;11.48;4.25;;;;;;;14.27;100.00;93433.44;2545222;23;20012;-81
2023/07/17 04:26:38;;;;;;;10.32;4.85;;;;;;;14.27;100.00;93436.13;2545855;23;20092;-80
2023/07/17 04:27:46;;;;;;;11.65;4.85;;;;;;;14.26;100.00;93428.47;2557834;23;20005;-81
2023/07/17 04:28:55;;;;;;;11.48;4.90;;;;;;;14.20;100.00;93430.22;2546580;23;20016;-81
2023/07/17 04:30:00;;;;;;;12.02;4.90;;;;;;;14.24;100.00;93425.47;2535300;23;20073;-81
2023/07/17 04:31:09;;;;;;;8.40;3.97;;;;;;;14.33;100.00;93429.00;2533792;23;20013;-81
2023/07/17 04:32:16;;;;;;;16.63;4.85;;;;;;;14.30;100.00;93443.31;2534910;23;20453;-80
2023/07/17 04:33:22;;;;;;;11.07;5.38;;;;;;;14.20;100.00;93440.97;2545996;23;20002;-81
2023/07/17 04:34:31;;;;;;;6.47;4.05;;;;;;;14.19;100.00;93437.53;2549038;23;20005;-80
2023/07/17 04:35:42;;;;;;;11.85;4.60;;;;;;;14.15;100.00;93442.25;2559275;23;20501;-82
2023/07/17 04:36:50;;;;;;;11.68;4.90;;;;;;;14.18;100.00;93440.63;2556970;23;20501;-81
2023/07/17 04:37:56;;;;;;;16.70;5.25;;;;;;;14.13;100.00;93441.91;2557725;23;20008;-81
2023/07/17 04:39:04;;;;;;;15.68;4.80;;;;;;;14.06;100.00;93450.97;2557501;23;20018;-81
2023/07/17 04:40:12;;;;;;;11.23;4.57;;;;;;;14.14;100.00;93446.13;2558582;23;20020;-80
2023/07/17 04:41:19;;;;;;;10.77;4.93;;;;;;;14.05;100.00;93449.47;2557745;23;20028;-80
2023/07/17 04:42:26;;;;;;;10.32;5.00;;;;;;;14.07;100.00;93447.09;2545254;23;20021;-80
2023/07/17 04:43:32;;;;;;;11.07;4.68;;;;;;;14.08;100.00;93437.81;2546403;23;20021;-81
2023/07/17 04:44:38;;;;;;;14.80;5.45;;;;;;;14.09;100.00;93439.34;2544832;23;20016;-81
2023/07/17 04:45:50;;;;;;;9.75;4.72;;;;;;;14.10;100.00;93440.84;2533356;23;20483;-80
2023/07/17 04:46:57;;;;;;;12.63;5.40;;;;;;;14.10;100.00;93442.78;2536536;23;20048;-82
2023/07/17 04:48:02;;;;;;;16.63;4.90;;;;;;;14.25;100.00;93445.78;2546262;23;20381;-81
2023/07/17 04:49:10;;;;;;;13.13;4.93;;;;;;;14.23;100.00;93448.91;2557290;23;20001;-81
2023/07/17 04:50:19;;;;;;;12.10;5.00;;;;;;;14.26;100.00;93450.72;2545743;23;20012;-81
2023/07/17 04:51:28;;;;;;;14.32;5.60;;;;;;;14.27;100.00;93446.13;2535151;23;20005;-80
2023/07/17 04:52:35;;;;;;;10.93;5.18;;;;;;;14.25;100.00;93449.22;2546888;23;20448;-81
2023/07/17 04:53:43;;;;;;;17.60;5.72;;;;;;;14.22;100.00;93449.34;2556176;23;20052;-82
2023/07/17 04:54:52;;;;;;;11.25;5.45;;;;;;;14.19;100.00;93447.53;2546599;23;20067;-80
2023/07/17 04:56:00;;;;;;;14.93;5.40;;;;;;;14.24;100.00;93450.41;2546117;23;20009;-81
2023/07/17 04:57:05;;;;;;;11.45;5.13;;;;;;;14.29;100.00;93451.81;2546399;23;20454;-81
2023/07/17 04:58:09;;;;;;;11.90;4.47;;;;;;;14.34;100.00;93449.34;2556475;23;20008;-80
2023/07/17 04:59:17;;;;;;;13.23;5.45;;;;;;;14.41;100.00;93453.75;2533017;23;20013;-81
2023/07/17 05:00:23;;;;;;;14.88;5.15;;;;;;;14.44;100.00;93458.25;2534641;23;20460;-82
2023/07/17 05:01:31;;;;;;;12.63;5.15;;;;;;;14.49;100.00;93457.75;2546516;23;20017;-83
2023/07/17 05:02:40;;;;;;;16.02;5.18;;;;;;;14.52;100.00;93451.50;2545987;23;20078;-80
2023/07/17 05:03:47;;;;;;;19.30;5.35;;;;;;;14.57;100.00;93448.28;2564977;23;19988;-81
2023/07/17 05:04:53;;;;;;;15.90;5.28;;;;;;;14.57;100.00;93437.53;2545336;23;20112;-81
2023/07/17 05:06:00;;;;;;;12.93;5.22;;;;;;;14.61;100.00;93451.59;2557217;23;20001;-80
2023/07/17 05:07:07;;;;;;;10.90;4.95;;;;;;;14.59;100.00;93456.66;2569841;23;20008;-82
2023/07/17 05:08:15;;;;;;;14.65;5.57;;;;;;;14.53;100.00;93453.03;2582281;23;20004;-81
2023/07/17 05:09:21;;;;;;;17.17;4.88;;;;;;;14.56;100.00;93460.22;2556414;23;20435;-80
2023/07/17 05:10:29;;;;;;;10.07;5.28;;;;;;;14.57;100.00;93456.34;2534232;23;20174;-81
2023/07/17 05:11:32;;;;;;;12.63;5.15;;;;;;;14.68;100.00;93460.63;2546693;23;20435;-80
2023/07/17 05:12:38;;;;;;;14.32;5.10;;;;;;;14.64;100.00;93460.00;2568731;23;20016;-80
2023/07/17 05:13:44;;;;;;;14.55;5.65;;;;;;;14.61;100.00;93462.34;2555779;23;20076;-80
2023/07/17 05:14:51;;;;;;;10.30;5.22;;;;;;;14.65;100.00;93458.81;2545250;23;20013;-80
2023/07/17 05:15:59;;;;;;;12.95;5.82;;;;;;;14.65;100.00;93467.63;2546428;23;20001;-80
2023/07/17 05:17:03;;;;;;;16.90;5.80;;;;;;;14.65;100.00;93466.88;2544909;23;20313;-82
2023/07/17 05:18:11;;;;;;;19.17;5.85;;;;;;;14.66;100.00;93466.44;2555732;23;20057;-81
2023/07/17 05:19:19;;;;;;;13.48;5.63;;;;;;;14.68;100.00;93466.78;2557407;23;20096;-80
2023/07/17 05:20:29;;;;;;;18.00;5.82;;;;;;;14.75;100.00;93466.56;2557328;23;20482;-80
2023/07/17 05:21:36;;;;;;;18.63;5.95;;;;;;;14.77;100.00;93471.50;2557752;23;20008;-82
2023/07/17 05:22:41;;;;;;;16.60;5.68;;;;;;;14.80;100.00;93468.69;2556588;23;20455;-81
2023/07/17 05:23:47;;;;;;;13.95;4.90;;;;;;;14.88;100.00;93468.44;2544162;23;20006;-81
2023/07/17 05:24:53;;;;;;;19.00;5.97;;;;;;;14.90;100.00;93474.16;2557198;23;20007;-82
2023/07/17 05:26:05;;;;;;;11.05;4.85;;;;;;;14.84;100.00;93469.34;2557010;23;20113;-81
2023/07/17 05:27:11;;;;;;;11.20;5.40;;;;;;;14.85;100.00;93464.69;2545783;23;20019;-81
2023/07/17 05:28:20;;;;;;;14.43;5.22;;;;;;;14.89;100.00;93465.34;2545044;23;20805;-80
2023/07/17 05:29:30;;;;;;;18.45;5.97;;;;;;;14.90;100.00;93466.09;2548011;23;20005;-81
2023/07/17 05:30:41;;;;;;;15.13;5.68;;;;;;;15.00;100.00;93473.81;2559755;23;20126;-81
2023/07/17 05:31:45;;;;;;;12.60;5.60;;;;;;;15.05;100.00;93467.13;2570339;23;20000;-80
2023/07/17 05:32:54;;;;;;;15.70;5.75;;;;;;;15.09;100.00;93460.41;2558269;23;20150;-80
2023/07/17 05:33:58;;;;;;;15.10;5.45;;;;;;;15.10;100.00;93461.16;2558895;23;20045;-80
2023/07/17 05:35:06;;;;;;;13.48;5.32;;;;;;;15.15;100.00;93463.34;2570242;23;20391;-81
2023/07/17 05:36:14;;;;;;;12.35;5.30;;;;;;;15.25;100.00;93464.16;2560090;23;20021;-80
2023/07/17 05:37:23;;;;;;;21.20;5.70;;;;;;;15.33;100.00;93468.13;2548294;23;20013;-79
2023/07/17 05:38:34;;;;;;;17.55;5.68;;;;;;;15.39;100.00;93471.00;2564891;23;20013;-80
2023/07/17 05:39:41;;;;;;;13.52;4.93;;;;;;;15.46;100.00;93471.50;2557886;23;20005;-81
2023/07/17 05:40:47;;;;;;;11.52;5.30;;;;;;;15.50;100.00;93466.75;2548555;23;20029;-80
2023/07/17 05:41:52;;;;;;;21.80;5.93;;;;;;;15.61;100.00;93475.19;2560062;23;20004;-80
2023/07/17 05:42:56;;;;;;;18.45;5.32;;;;;;;15.59;100.00;93472.19;2559297;23;20056;-80
2023/07/17 05:44:03;;;;;;;19.00;6.05;;;;;;;15.75;100.00;93473.97;2559151;23;20001;-80
2023/07/17 05:45:08;;;;;;;17.50;6.40;;;;;;;15.74;100.00;93475.16;2570869;23;20004;-80
2023/07/17 05:46:15;;;;;;;13.73;5.60;;;;;;;15.72;100.00;93471.41;2557800;23;20067;-80
2023/07/17 05:47:23;;;;;;;19.30;5.95;;;;;;;15.72;100.00;93472.16;2535473;23;20017;-80
2023/07/17 05:48:30;;;;;;;16.15;5.45;;;;;;;15.67;100.00;93466.56;2561592;23;20064;-80
2023/07/17 05:49:36;;;;;;;14.27;5.38;;;;;;;15.70;100.00;93471.84;2570146;23;20001;-81
2023/07/17 05:50:48;;;;;;;12.25;6.03;;;;;;;15.70;100.00;93461.06;2558805;23;20024;-81
2023/07/17 05:51:59;;;;;;;19.25;6.80;;;;;;;15.69;100.00;93461.50;2559615;23;19996;-80
2023/07/17 05:53:07;;;;;;;16.60;6.13;;;;;;;15.75;100.00;93465.88;2546685;23;20017;-81
2023/07/17 05:54:15;;;;;;;19.23;6.30;;;;;;;15.75;100.00;93468.56;2548091;23;20009;-82
2023/07/17 05:55:22;;;;;;;14.57;5.63;;;;;;;15.75;100.00;93468.56;2546393;23;20006;-80
2023/07/17 05:56:28;;;;;;;17.63;6.10;;;;;;;15.69;100.00;93459.56;2547556;23;20009;-80
2023/07/17 05:57:36;;;;;;;17.52;5.80;;;;;;;15.69;100.00;93464.19;2558518;23;20005;-80
2023/07/17 05:58:41;;;;;;;14.52;5.95;;;;;;;15.56;100.00;93451.50;2546943;23;20005;-81
2023/07/17 05:59:48;;;;;;;22.02;6.40;;;;;;;15.54;100.00;93464.69;2545942;23;20088;-81
2023/07/17 06:00:53;;;;;;;21.38;6.22;;;;;;;15.64;100.00;93468.22;2547441;23;20406;-80